Time;durP1;ratioP1;P1;durP2;ratioP2;P2;SDS_P1;SDS_P2;PMS_P1;PMS_P2;Temp;Humidity;BMP_temperature;BMP_pressure;BME280_temperature;BME280_humidity;BME280_pressure;Samples;Min_cycle;Max_cycle;Signal;HPM_P1;HPM_P2
2022/08/22 00:01:14;;;;;;;7.63;2.38;;;21.90;59.70;;;;;;5022847;28;20052;-66
2022/08/22 00:04:08;;;;;;;7.32;2.25;;;21.90;59.70;;;;;;5020021;28;20069;-66
2022/08/22 00:06:56;;;;;;;6.47;2.00;;;21.90;59.90;;;;;;5019623;28;20505;-66
2022/08/22 00:09:40;;;;;;;5.93;2.08;;;21.90;60.00;;;;;;5005300;28;20169;-66
2022/08/22 00:12:43;;;;;;;6.75;2.22;;;21.90;60.10;;;;;;5029124;28;20029;-66
2022/08/22 00:15:16;;;;;;;7.70;2.22;;;21.90;60.10;;;;;;5015440;28;20061;-66
2022/08/22 00:18:09;;;;;;;8.23;2.53;;;21.90;60.20;;;;;;5010852;28;20032;-66
2022/08/22 00:20:44;;;;;;;6.70;1.70;;;21.90;60.30;;;;;;5024859;28;20033;-66
2022/08/22 00:23:51;;;;;;;6.20;2.30;;;21.90;60.40;;;;;;5025898;28;20029;-66
2022/08/22 00:26:41;;;;;;;6.32;2.00;;;21.80;60.50;;;;;;4985927;28;20035;-66
2022/08/22 00:29:18;;;;;;;9.98;2.45;;;21.80;60.60;;;;;;4987615;28;20039;-66
2022/08/22 00:31:53;;;;;;;6.47;2.15;;;21.80;60.70;;;;;;4982601;28;20065;-66
2022/08/22 00:34:35;;;;;;;6.25;1.90;;;21.80;60.80;;;;;;4961935;28;20042;-66
2022/08/22 00:37:11;;;;;;;5.95;2.13;;;21.80;60.90;;;;;;4994039;28;20499;-66
2022/08/22 00:39:49;;;;;;;6.80;2.40;;;21.80;61.00;;;;;;4977997;28;20101;-66
2022/08/22 00:42:59;;;;;;;6.30;2.42;;;21.80;61.10;;;;;;4976985;28;20042;-66
2022/08/22 00:46:02;;;;;;;7.82;2.30;;;21.80;61.20;;;;;;4983947;28;20046;-66
2022/08/22 00:49:01;;;;;;;5.18;1.88;;;21.70;61.20;;;;;;4994032;28;20129;-66
2022/08/22 00:52:06;;;;;;;7.88;2.15;;;21.80;61.40;;;;;;4973322;28;20030;-66
2022/08/22 00:54:40;;;;;;;9.70;3.00;;;21.70;61.50;;;;;;4968058;28;20050;-66
2022/08/22 00:57:18;;;;;;;5.68;2.03;;;21.70;61.60;;;;;;4982536;28;20033;-66
2022/08/22 01:00:12;;;;;;;5.28;2.15;;;21.70;61.70;;;;;;4996849;28;20048;-66
2022/08/22 01:03:10;;;;;;;8.07;2.53;;;21.70;61.80;;;;;;5045001;28;20458;-66
2022/08/22 01:05:51;;;;;;;7.63;1.98;;;21.70;61.80;;;;;;5016540;28;20060;-66
2022/08/22 01:08:37;;;;;;;;;;;21.60;61.90;;;;;;5033855;28;20051;-66
2022/08/22 01:11:21;;;;;;;6.65;2.08;;;21.70;61.80;;;;;;5000972;28;19909;-66
2022/08/22 01:13:52;;;;;;;6.78;1.90;;;21.60;62.00;;;;;;5022789;28;20134;-66
2022/08/22 01:16:43;;;;;;;10.15;2.50;;;21.60;62.10;;;;;;5023967;28;20033;-67
2022/08/22 01:19:37;;;;;;;8.90;2.70;;;21.60;62.30;;;;;;5012608;28;20021;-66
2022/08/22 01:22:39;;;;;;;6.68;2.10;;;21.60;62.40;;;;;;5019515;28;20041;-66
2022/08/22 01:25:32;;;;;;;6.88;2.00;;;21.60;62.50;;;;;;5024214;28;20064;-66
2022/08/22 01:28:06;;;;;;;6.47;2.47;;;21.50;62.40;;;;;;5023743;28;20493;-66
2022/08/22 01:30:54;;;;;;;8.77;2.40;;;21.50;62.60;;;;;;5024422;28;20041;-66
2022/08/22 01:33:19;;;;;;;6.97;2.22;;;21.50;62.70;;;;;;5025731;28;20366;-66
2022/08/22 01:36:14;;;;;;;8.20;2.45;;;21.50;62.80;;;;;;5004329;28;20037;-66
2022/08/22 01:39:10;;;;;;;7.68;2.30;;;21.50;62.80;;;;;;5030248;28;20411;-66
2022/08/22 01:41:44;;;;;;;8.10;2.50;;;21.50;62.90;;;;;;5007290;28;20032;-66
2022/08/22 01:44:44;;;;;;;6.43;2.22;;;21.50;63.00;;;;;;5013546;28;20038;-66
2022/08/22 01:47:15;;;;;;;7.38;2.30;;;21.50;63.00;;;;;;5016504;28;20036;-66
2022/08/22 01:49:49;;;;;;;;;;;21.50;63.10;;;;;;5023945;28;20034;-66
2022/08/22 01:52:21;;;;;;;6.70;2.03;;;21.50;63.00;;;;;;5022035;28;19989;-66
2022/08/22 01:55:01;;;;;;;7.20;2.13;;;21.40;63.20;;;;;;5021475;28;20037;-66
2022/08/22 01:57:27;;;;;;;5.45;2.00;;;21.50;63.30;;;;;;5026859;28;20104;-66
2022/08/22 01:59:58;;;;;;;10.25;2.50;;;21.40;63.20;;;;;;5035944;28;20168;-66
2022/08/22 02:02:44;;;;;;;7.03;2.85;;;21.50;63.40;;;;;;5014937;28;20026;-66
2022/08/22 02:05:16;;;;;;;9.68;2.40;;;21.40;63.40;;;;;;5024426;28;20116;-66
2022/08/22 02:07:59;;;;;;;8.02;2.72;;;21.50;63.50;;;;;;5029304;28;20036;-66
2022/08/22 02:10:49;;;;;;;8.10;2.90;;;21.40;63.50;;;;;;5012179;28;20033;-66
2022/08/22 02:13:43;;;;;;;6.72;2.40;;;21.40;63.40;;;;;;5015705;28;20043;-66
2022/08/22 02:16:15;;;;;;;11.80;2.95;;;21.40;63.50;;;;;;5011314;28;20121;-66
2022/08/22 02:18:56;;;;;;;8.25;2.35;;;21.40;63.50;;;;;;5032208;28;20373;-66
2022/08/22 02:21:40;;;;;;;8.30;2.35;;;21.40;63.60;;;;;;5027515;28;20029;-66
2022/08/22 02:24:34;;;;;;;8.35;2.40;;;21.40;63.70;;;;;;5032814;28;20099;-66
2022/08/22 02:27:15;;;;;;;9.27;2.67;;;21.40;63.80;;;;;;5020214;28;20041;-66
2022/08/22 02:29:47;;;;;;;8.05;2.58;;;21.40;63.80;;;;;;5024230;28;20025;-66
2022/08/22 02:32:35;;;;;;;6.32;2.50;;;21.40;63.90;;;;;;5022801;28;20355;-66
2022/08/22 02:35:00;;;;;;;8.00;2.75;;;21.40;63.90;;;;;;5026697;28;20044;-66
2022/08/22 02:37:56;;;;;;;7.20;2.53;;;21.40;64.00;;;;;;5025055;28;20470;-66
2022/08/22 02:40:29;;;;;;;6.80;2.67;;;21.40;64.00;;;;;;5012616;28;20068;-66
2022/08/22 02:43:00;;;;;;;7.75;2.47;;;21.40;64.10;;;;;;5014750;28;20029;-66
2022/08/22 02:45:45;;;;;;;8.82;2.67;;;21.30;64.10;;;;;;5025576;28;20077;-66
2022/08/22 02:48:13;;;;;;;8.77;2.80;;;21.40;64.20;;;;;;5012927;28;20104;-66
2022/08/22 02:51:02;;;;;;;6.72;2.50;;;21.40;64.20;;;;;;5029440;28;20048;-66
2022/08/22 02:53:38;;;;;;;7.53;2.60;;;21.40;64.20;;;;;;5019306;28;20104;-66
2022/08/22 02:56:10;;;;;;;8.88;2.63;;;21.40;64.20;;;;;;5031211;28;20034;-66
2022/08/22 02:58:49;;;;;;;9.95;2.70;;;21.30;64.30;;;;;;5015129;28;20032;-66
2022/08/22 03:01:18;;;;;;;7.50;2.15;;;21.30;64.30;;;;;;5027194;28;20423;-66
2022/08/22 03:03:46;;;;;;;7.55;2.40;;;21.30;65.00;;;;;;5006448;28;20073;-66
2022/08/22 03:06:34;;;;;;;6.45;2.30;;;21.30;64.40;;;;;;5025232;28;20028;-66
2022/08/22 03:09:13;;;;;;;7.88;2.35;;;21.30;64.50;;;;;;5023737;28;20091;-66
2022/08/22 03:11:48;;;;;;;7.40;2.72;;;21.30;64.60;;;;;;5015265;28;20032;-66
2022/08/22 03:14:25;;;;;;;8.90;2.72;;;21.30;64.60;;;;;;5012898;28;20045;-66
2022/08/22 03:17:05;;;;;;;8.10;2.83;;;21.30;64.60;;;;;;5031204;28;20108;-66
2022/08/22 03:19:42;;;;;;;7.43;2.90;;;21.30;64.70;;;;;;5026651;28;20405;-66
2022/08/22 03:22:31;;;;;;;9.30;2.55;;;21.30;64.70;;;;;;5019673;28;20105;-66
2022/08/22 03:25:22;;;;;;;6.70;2.65;;;21.20;64.80;;;;;;5029800;28;20041;-66
2022/08/22 03:28:13;;;;;;;8.65;2.80;;;21.20;64.80;;;;;;5023806;28;20113;-66
2022/08/22 03:30:54;;;;;;;7.43;2.30;;;21.20;64.80;;;;;;5003570;28;20687;-66
2022/08/22 03:33:23;;;;;;;8.55;2.65;;;21.20;64.90;;;;;;5013287;28;20432;-66
2022/08/22 03:36:00;;;;;;;8.88;2.90;;;21.20;64.90;;;;;;5033371;28;20403;-66
2022/08/22 03:38:32;;;;;;;7.65;2.67;;;21.20;65.00;;;;;;5014480;28;20021;-66
2022/08/22 03:41:07;;;;;;;8.15;2.80;;;21.20;65.10;;;;;;5020152;28;20029;-66
2022/08/22 03:44:11;;;;;;;7.88;2.50;;;21.20;65.20;;;;;;5005368;28;20033;-66
2022/08/22 03:46:57;;;;;;;7.78;2.97;;;21.20;65.30;;;;;;5024035;28;20030;-66
2022/08/22 03:49:53;;;;;;;7.53;2.58;;;21.10;65.20;;;;;;5023127;28;20087;-66
2022/08/22 03:53:09;;;;;;;6.25;2.35;;;21.20;65.30;;;;;;5023358;28;20030;-66
2022/08/22 03:56:08;;;;;;;6.93;2.60;;;21.20;65.30;;;;;;5017783;28;20041;-67
2022/08/22 03:58:43;;;;;;;9.48;2.90;;;21.10;65.30;;;;;;5021177;28;20084;-66
2022/08/22 04:02:06;;;;;;;6.47;2.30;;;21.10;65.40;;;;;;5011491;28;20092;-66
2022/08/22 04:05:04;;;;;;;10.15;3.22;;;21.10;65.50;;;;;;4990688;28;20062;-67
2022/08/22 04:08:01;;;;;;;6.60;2.28;;;21.10;65.60;;;;;;5011013;28;20465;-66
2022/08/22 04:11:00;;;;;;;12.13;2.60;;;21.00;65.60;;;;;;4964205;28;20137;-66
2022/08/22 04:13:45;;;;;;;10.25;3.03;;;21.10;65.80;;;;;;4995372;28;20088;-66
2022/08/22 04:16:35;;;;;;;7.32;2.63;;;21.00;65.90;;;;;;4998270;28;20041;-66
2022/08/22 04:19:04;;;;;;;5.97;2.47;;;21.00;65.80;;;;;;4992285;28;20101;-66
2022/08/22 04:22:14;;;;;;;6.85;2.40;;;21.00;65.90;;;;;;4975816;28;20048;-66
2022/08/22 04:25:09;;;;;;;7.70;2.90;;;21.00;65.90;;;;;;4995031;28;20042;-66
2022/08/22 04:27:40;;;;;;;9.35;2.97;;;21.00;66.00;;;;;;4983563;28;20391;-66
2022/08/22 04:30:30;;;;;;;8.18;2.80;;;21.00;66.00;;;;;;4996936;28;20061;-66
2022/08/22 04:32:55;;;;;;;8.63;2.92;;;21.00;66.00;;;;;;4973084;28;20085;-66
2022/08/22 04:35:35;;;;;;;8.93;3.15;;;21.00;66.00;;;;;;4992304;28;20407;-66
2022/08/22 04:38:20;;;;;;;8.07;2.65;;;21.00;66.10;;;;;;5031413;28;20362;-66
2022/08/22 04:40:57;;;;;;;9.68;2.70;;;21.00;66.20;;;;;;5021060;28;20037;-66
2022/08/22 04:43:46;;;;;;;10.32;2.75;;;21.00;66.20;;;;;;5026216;28;20481;-66
2022/08/22 04:46:21;;;;;;;8.63;2.78;;;21.00;66.20;;;;;;5023438;28;20034;-66
2022/08/22 04:48:58;;;;;;;8.20;3.00;;;21.00;66.20;;;;;;5023377;28;20037;-66
2022/08/22 04:51:37;;;;;;;7.43;2.80;;;21.00;66.20;;;;;;5005838;28;20025;-66
2022/08/22 04:54:32;;;;;;;7.57;2.88;;;21.00;66.20;;;;;;5025398;28;20076;-66
2022/08/22 04:57:17;;;;;;;7.65;2.97;;;21.00;66.40;;;;;;5030301;28;20422;-66
2022/08/22 04:59:43;;;;;;;8.95;2.92;;;21.00;66.90;;;;;;5014698;28;20061;-66
2022/08/22 05:02:18;;;;;;;10.23;2.80;;;21.00;66.30;;;;;;5031689;28;20049;-66
2022/08/22 05:04:47;;;;;;;7.07;2.80;;;21.00;66.40;;;;;;5019241;28;20036;-66
2022/08/22 05:07:24;;;;;;;9.32;3.35;;;21.00;66.40;;;;;;5037745;28;20099;-66
2022/08/22 05:10:09;;;;;;;7.53;3.00;;;21.00;66.40;;;;;;5022625;28;20247;-66
2022/08/22 05:12:51;;;;;;;6.57;2.53;;;21.00;66.40;;;;;;5030088;28;20061;-66
2022/08/22 05:15:21;;;;;;;6.68;2.83;;;21.00;66.40;;;;;;5021682;28;20041;-66
2022/08/22 05:17:50;;;;;;;8.75;3.25;;;21.00;66.50;;;;;;5036805;28;20026;-66
2022/08/22 05:20:21;;;;;;;13.52;3.33;;;21.00;66.60;;;;;;5023146;28;20032;-67
2022/08/22 05:22:52;;;;;;;8.25;3.13;;;21.00;66.60;;;;;;5027118;28;20439;-67
2022/08/22 05:25:25;;;;;;;8.48;3.42;;;21.00;66.60;;;;;;5015587;28;20455;-67
2022/08/22 05:27:58;;;;;;;10.00;3.22;;;21.00;66.70;;;;;;5029315;28;20112;-67
2022/08/22 05:30:26;;;;;;;9.02;2.97;;;21.00;67.00;;;;;;5020463;28;20030;-67
2022/08/22 05:33:19;;;;;;;9.93;2.70;;;21.00;67.00;;;;;;5024068;28;20624;-66
2022/08/22 05:36:02;;;;;;;8.35;3.08;;;21.00;66.90;;;;;;5018199;28;20040;-66
2022/08/22 05:38:30;;;;;;;6.65;2.90;;;21.00;67.00;;;;;;5035087;28;20033;-66
2022/08/22 05:41:04;;;;;;;9.52;3.15;;;21.00;67.00;;;;;;5022843;28;20061;-66
2022/08/22 05:43:36;;;;;;;11.00;3.28;;;21.00;66.90;;;;;;5013800;28;20124;-66
2022/08/22 05:46:03;;;;;;;;;;;21.00;67.00;;;;;;5024422;28;20117;-66
2022/08/22 05:48:41;;;;;;;11.27;2.60;;;21.00;66.80;;;;;;5036726;28;19909;-66
2022/08/22 05:51:24;;;;;;;9.07;3.30;;;21.10;66.90;;;;;;5022158;28;20025;-66
2022/08/22 05:54:07;;;;;;;8.30;3.28;;;21.10;66.80;;;;;;5010086;28;20108;-66
2022/08/22 05:56:37;;;;;;;11.38;3.15;;;21.00;66.80;;;;;;5026974;28;20041;-67
2022/08/22 05:59:18;;;;;;;6.23;2.67;;;21.10;66.90;;;;;;5026914;28;20030;-68
2022/08/22 06:02:09;;;;;;;9.00;2.70;;;21.10;66.90;;;;;;5015889;28;20295;-66
2022/08/22 06:04:37;;;;;;;;;;;21.10;66.80;;;;;;5013163;28;20030;-66
2022/08/22 06:07:24;;;;;;;10.35;3.10;;;21.20;66.80;;;;;;5013728;28;19910;-66
2022/08/22 06:10:18;;;;;;;10.55;3.13;;;21.10;66.70;;;;;;5016541;28;20354;-67
2022/08/22 06:12:56;;;;;;;8.90;2.70;;;21.10;66.50;;;;;;5024240;28;20034;-66
2022/08/22 06:15:31;;;;;;;7.32;3.20;;;21.20;66.50;;;;;;5023662;28;20098;-66
2022/08/22 06:18:02;;;;;;;8.52;3.00;;;21.20;66.40;;;;;;5027794;28;20354;-66
2022/08/22 06:20:42;;;;;;;10.48;3.13;;;21.20;66.30;;;;;;5032312;28;20017;-66
2022/08/22 06:23:14;;;;;;;7.85;2.88;;;21.30;66.30;;;;;;5024552;28;20031;-67
2022/08/22 06:25:45;;;;;;;7.10;2.80;;;21.30;66.20;;;;;;5022390;28;20398;-66
2022/08/22 06:28:16;;;;;;;;;;;21.30;66.10;;;;;;5015897;28;20481;-66
2022/08/22 06:30:44;;;;;;;8.73;3.17;;;21.40;66.00;;;;;;5021924;28;19909;-66
2022/08/22 06:33:15;;;;;;;8.57;3.00;;;21.40;65.80;;;;;;5024435;28;20083;-66
2022/08/22 06:38:36;;;;;;;6.47;2.85;;;21.40;65.60;;;;;;5014728;28;20125;-66
2022/08/22 06:41:05;;;;;;;8.80;3.20;;;21.50;65.50;;;;;;5020277;28;20099;-66
2022/08/22 06:43:38;;;;;;;8.93;2.78;;;21.60;65.40;;;;;;5029841;28;20111;-66
2022/08/22 06:46:05;;;;;;;8.68;3.20;;;21.60;65.20;;;;;;5022351;28;20467;-66
2022/08/22 06:48:34;;;;;;;7.53;2.97;;;21.70;65.10;;;;;;5020117;28;20463;-66
2022/08/22 06:51:00;;;;;;;12.05;3.85;;;21.70;65.00;;;;;;5031023;28;20047;-66
2022/08/22 06:53:48;;;;;;;11.25;3.22;;;21.80;64.90;;;;;;5023922;28;20029;-66
2022/08/22 06:56:20;;;;;;;6.60;2.83;;;21.80;64.60;;;;;;5015147;28;20037;-66
2022/08/22 06:58:49;;;;;;;8.98;2.88;;;21.90;64.50;;;;;;5019977;28;20025;-66
2022/08/22 07:01:23;;;;;;;9.27;3.03;;;21.90;64.20;;;;;;5014355;28;20022;-66
2022/08/22 07:03:57;;;;;;;7.93;3.10;;;22.00;64.10;;;;;;5009605;28;20418;-66
2022/08/22 07:06:36;;;;;;;8.82;3.08;;;22.00;64.10;;;;;;5034266;28;20450;-66
2022/08/22 07:09:04;;;;;;;8.38;2.67;;;22.00;64.00;;;;;;5017426;28;20022;-65
2022/08/22 07:11:38;;;;;;;7.15;2.88;;;22.00;63.90;;;;;;5032023;28;20021;-66
2022/08/22 07:14:13;;;;;;;10.30;3.03;;;22.10;63.80;;;;;;5024712;28;20049;-65
2022/08/22 07:17:15;;;;;;;6.85;3.08;;;22.10;63.60;;;;;;5032241;28;20394;-66
2022/08/22 07:20:06;;;;;;;8.93;3.10;;;22.20;63.40;;;;;;5003469;28;20339;-66
2022/08/22 07:22:35;;;;;;;8.65;2.83;;;22.30;63.20;;;;;;5020279;28;20380;-65
2022/08/22 07:25:09;;;;;;;10.10;3.40;;;22.30;63.00;;;;;;5017673;28;20068;-65
2022/08/22 07:27:59;;;;;;;10.82;4.45;;;22.40;62.90;;;;;;5023600;28;20054;-65
2022/08/22 07:30:38;;;;;;;9.35;3.67;;;22.40;62.70;;;;;;5028551;28;20033;-65
2022/08/22 07:33:15;;;;;;;12.50;3.38;;;22.50;62.70;;;;;;5035306;28;20037;-66
2022/08/22 07:35:45;;;;;;;7.35;2.95;;;22.50;62.40;;;;;;5031957;28;20051;-65
2022/08/22 07:38:42;;;;;;;11.50;3.33;;;22.60;62.30;;;;;;5024265;28;20044;-65
2022/08/22 07:41:16;;;;;;;9.35;2.60;;;22.60;62.10;;;;;;5019701;28;20048;-65
2022/08/22 07:43:52;;;;;;;8.85;2.90;;;22.60;62.10;;;;;;5017111;28;20444;-66
2022/08/22 07:46:40;;;;;;;10.63;3.45;;;22.70;61.90;;;;;;5017178;28;20477;-66
2022/08/22 07:49:23;;;;;;;10.30;2.70;;;22.70;61.70;;;;;;5010476;28;20109;-66
2022/08/22 07:51:54;;;;;;;9.00;2.83;;;22.80;61.50;;;;;;5027101;28;20029;-66
2022/08/22 07:54:42;;;;;;;10.25;2.83;;;22.80;61.40;;;;;;5021482;28;20049;-67
2022/08/22 07:57:33;;;;;;;10.70;2.90;;;22.90;61.20;;;;;;5009232;28;20033;-66
2022/08/22 08:00:03;;;;;;;7.65;2.70;;;22.90;60.90;;;;;;5001244;28;20138;-66
2022/08/22 08:02:44;;;;;;;8.00;2.70;;;23.00;60.80;;;;;;5012198;28;20034;-67
2022/08/22 08:05:13;;;;;;;7.57;2.90;;;23.30;60.40;;;;;;5013133;28;20473;-64
2022/08/22 08:07:42;;;;;;;8.77;2.78;;;23.50;59.90;;;;;;5011269;28;20351;-67
2022/08/22 08:10:13;;;;;;;10.68;3.08;;;23.70;59.40;;;;;;5025746;28;20450;-68
2022/08/22 08:12:43;;;;;;;6.65;2.70;;;23.80;59.10;;;;;;5010596;28;20124;-67
2022/08/22 08:15:17;;;;;;;8.50;2.87;;;23.90;59.10;;;;;;5019510;28;20370;-66
2022/08/22 08:17:44;;;;;;;7.28;2.80;;;23.80;59.60;;;;;;5020910;28;20037;-67
2022/08/22 08:20:16;;;;;;;6.97;2.80;;;23.80;59.10;;;;;;5022524;28;20439;-67
2022/08/22 08:22:44;;;;;;;6.65;2.55;;;23.80;59.10;;;;;;5012623;28;20029;-66
2022/08/22 08:25:15;;;;;;;8.93;2.70;;;23.80;59.10;;;;;;5011640;28;20036;-67
2022/08/22 08:30:28;;;;;;;7.75;2.72;;;24.20;58.60;;;;;;5021498;28;20033;-67
2022/08/22 08:32:57;;;;;;;7.90;3.00;;;24.50;58.00;;;;;;5019563;28;20072;-66
2022/08/22 08:35:30;;;;;;;12.70;2.95;;;24.70;57.60;;;;;;5014180;28;20033;-66
2022/08/22 08:38:08;;;;;;;7.95;2.88;;;25.00;56.80;;;;;;5016478;28;20092;-67
2022/08/22 08:40:56;;;;;;;6.38;2.28;;;25.30;56.20;;;;;;5020610;28;20511;-67
2022/08/22 08:43:33;;;;;;;8.57;2.83;;;25.60;55.50;;;;;;5022373;28;20080;-64
2022/08/22 08:46:13;;;;;;;6.63;2.50;;;25.80;55.10;;;;;;5011780;28;20097;-65
2022/08/22 08:49:09;;;;;;;8.07;2.95;;;25.90;55.00;;;;;;5031855;28;20077;-65
2022/08/22 08:51:54;;;;;;;9.15;3.08;;;25.90;55.00;;;;;;5032169;28;20033;-65
2022/08/22 08:54:34;;;;;;;7.88;2.70;;;25.70;54.90;;;;;;5010051;28;20408;-65
2022/08/22 08:57:14;;;;;;;11.18;3.15;;;25.60;55.00;;;;;;5017985;28;20105;-64
2022/08/22 08:59:42;;;;;;;9.65;2.67;;;25.50;55.20;;;;;;5009476;28;20081;-65
2022/08/22 09:02:39;;;;;;;6.88;2.47;;;25.40;55.40;;;;;;5004345;28;20030;-65
2022/08/22 09:05:14;;;;;;;8.65;2.92;;;25.30;55.40;;;;;;5011875;28;20084;-65
2022/08/22 09:07:55;;;;;;;7.03;2.45;;;25.20;55.70;;;;;;5017199;28;20049;-65
2022/08/22 09:10:37;;;;;;;7.32;2.67;;;25.10;55.70;;;;;;5024276;28;20041;-65
2022/08/22 09:13:41;;;;;;;7.97;2.45;;;25.10;55.80;;;;;;5032241;28;20054;-66
2022/08/22 09:16:23;;;;;;;9.13;2.72;;;25.40;55.70;;;;;;5034922;28;20176;-66
2022/08/22 09:19:19;;;;;;;8.32;3.10;;;25.70;55.30;;;;;;5024102;28;20087;-65
2022/08/22 09:22:26;;;;;;;8.10;2.92;;;25.80;54.90;;;;;;5015734;28;20021;-65
2022/08/22 09:25:10;;;;;;;6.75;2.78;;;26.10;54.60;;;;;;5037162;28;20048;-65
2022/08/22 09:27:58;;;;;;;11.57;2.83;;;26.50;54.30;;;;;;5016450;28;20022;-65
2022/08/22 09:30:40;;;;;;;9.15;2.88;;;26.90;53.40;;;;;;5021836;28;20099;-66
2022/08/22 09:33:12;;;;;;;8.23;2.63;;;27.30;52.90;;;;;;5022573;28;20049;-65
2022/08/22 09:36:02;;;;;;;9.50;2.85;;;27.60;52.30;;;;;;5019369;28;20029;-65
2022/08/22 09:38:52;;;;;;;8.70;2.40;;;27.80;51.50;;;;;;5025245;28;20359;-65
2022/08/22 09:41:36;;;;;;;6.88;2.30;;;28.00;51.30;;;;;;5005313;28;20057;-65
2022/08/22 09:44:16;;;;;;;7.90;2.35;;;28.10;51.10;;;;;;5013072;28;20022;-65
2022/08/22 09:47:09;;;;;;;9.63;2.55;;;28.20;50.80;;;;;;5012623;28;20064;-65
2022/08/22 09:49:54;;;;;;;8.23;2.38;;;28.30;50.30;;;;;;5002800;28;20034;-65
2022/08/22 09:52:41;;;;;;;6.68;2.10;;;28.20;50.00;;;;;;5015239;28;20030;-65
2022/08/22 09:55:16;;;;;;;7.97;2.40;;;28.20;49.70;;;;;;5006062;28;20022;-65
2022/08/22 09:58:04;;;;;;;6.80;2.10;;;28.10;49.40;;;;;;4995382;28;20074;-66
2022/08/22 10:00:46;;;;;;;7.05;2.10;;;28.00;49.30;;;;;;5014406;28;20033;-65
2022/08/22 10:03:49;;;;;;;6.55;2.13;;;27.90;49.40;;;;;;5014487;28;20108;-65
2022/08/22 10:06:27;;;;;;;5.97;2.40;;;28.00;49.20;;;;;;5013462;28;20379;-65
2022/08/22 10:09:38;;;;;;;9.52;2.60;;;28.20;48.80;;;;;;5015995;28;20347;-66
2022/08/22 10:12:09;;;;;;;;;;;28.30;48.40;;;;;;4994871;28;20097;-66
2022/08/22 10:15:12;;;;;;;6.27;1.93;;;28.20;48.70;;;;;;4994931;28;19979;-66
2022/08/22 10:18:01;;;;;;;8.65;2.03;;;28.10;48.50;;;;;;4990752;28;20387;-66
2022/08/22 10:20:34;;;;;;;7.13;2.33;;;28.00;48.60;;;;;;4989384;28;20077;-66
2022/08/22 10:23:19;;;;;;;7.90;2.20;;;28.00;48.40;;;;;;4994612;28;20045;-67
2022/08/22 10:26:02;;;;;;;6.93;2.00;;;28.10;47.90;;;;;;4967861;28;20118;-66
2022/08/22 10:28:47;;;;;;;5.95;2.03;;;28.10;47.60;;;;;;4993347;28;20050;-66
2022/08/22 10:31:26;;;;;;;6.75;2.40;;;28.10;47.40;;;;;;4990791;28;20045;-65
2022/08/22 10:34:15;;;;;;;7.10;2.55;;;28.10;47.30;;;;;;4985709;28;20602;-65
2022/08/22 10:37:03;;;;;;;9.38;2.80;;;28.00;47.00;;;;;;5006159;28;20030;-65
2022/08/22 10:39:57;;;;;;;7.63;2.53;;;28.00;47.10;;;;;;4985894;28;20038;-65
2022/08/22 10:42:58;;;;;;;5.75;1.95;;;28.00;47.00;;;;;;4980271;28;20050;-65
2022/08/22 10:45:26;;;;;;;;;;;28.00;46.80;;;;;;4935596;28;20047;-64
2022/08/22 10:47:52;;;;;;;7.00;2.42;;;28.00;47.20;;;;;;4971155;28;19910;-65
2022/08/22 10:50:32;;;;;;;6.97;2.10;;;27.90;47.10;;;;;;4959296;28;20479;-64
2022/08/22 10:55:53;;;;;;;7.80;2.30;;;27.80;47.00;;;;;;4953476;29;20043;-64
2022/08/22 10:58:28;;;;;;;7.82;2.83;;;27.60;46.60;;;;;;4915931;29;20101;-63
2022/08/22 11:00:58;;;;;;;6.68;2.35;;;27.60;46.20;;;;;;4937249;29;20114;-63
2022/08/22 11:03:34;;;;;;;6.50;1.92;;;27.50;46.40;;;;;;4957633;28;20035;-63
2022/08/22 11:06:05;;;;;;;6.80;2.28;;;27.50;46.30;;;;;;4948133;28;20102;-63
2022/08/22 11:09:07;;;;;;;8.68;2.20;;;27.40;46.00;;;;;;4925030;28;20151;-63
2022/08/22 11:11:47;;;;;;;5.63;2.03;;;27.50;45.80;;;;;;4958977;28;20085;-64
2022/08/22 11:14:44;;;;;;;5.85;2.20;;;27.50;45.70;;;;;;4948888;28;20149;-64
2022/08/22 11:17:33;;;;;;;8.40;2.53;;;27.60;45.70;;;;;;4948772;28;20159;-65
2022/08/22 11:20:11;;;;;;;5.45;2.05;;;27.60;45.80;;;;;;4960760;28;20090;-65
2022/08/22 11:22:52;;;;;;;5.60;2.17;;;27.70;45.60;;;;;;5028461;28;20362;-65
2022/08/22 11:25:40;;;;;;;8.10;2.22;;;27.80;45.50;;;;;;5035172;28;20362;-65
2022/08/22 11:28:20;;;;;;;6.05;2.20;;;27.80;45.30;;;;;;5035280;28;20328;-65
2022/08/22 11:31:10;;;;;;;7.18;2.17;;;27.90;45.20;;;;;;5035468;28;20108;-65
2022/08/22 11:34:06;;;;;;;6.07;2.22;;;28.10;45.20;;;;;;5033891;28;20030;-65
2022/08/22 11:37:07;;;;;;;5.85;2.30;;;28.10;44.90;;;;;;5024510;28;20373;-65
2022/08/22 11:40:21;;;;;;;7.40;2.10;;;28.30;44.50;;;;;;5011121;28;20037;-65
2022/08/22 11:43:24;;;;;;;5.13;2.20;;;28.60;44.40;;;;;;5013736;28;20482;-65
2022/08/22 11:45:55;;;;;;;5.85;2.38;;;28.90;43.80;;;;;;5013286;28;20054;-65
2022/08/22 11:48:41;;;;;;;6.03;2.10;;;28.80;43.70;;;;;;5013409;28;20076;-66
2022/08/22 11:51:39;;;;;;;5.70;1.73;;;28.80;43.70;;;;;;5013459;28;20152;-65
2022/08/22 11:54:22;;;;;;;6.63;2.35;;;28.80;43.70;;;;;;4985729;28;20034;-65
2022/08/22 11:56:59;;;;;;;6.18;2.15;;;28.80;43.70;;;;;;5001252;28;20034;-65
2022/08/22 11:59:52;;;;;;;6.50;2.00;;;28.80;43.60;;;;;;5013456;28;20046;-65
2022/08/22 12:02:27;;;;;;;6.50;2.00;;;28.70;43.40;;;;;;5013511;28;20324;-65
2022/08/22 12:05:15;;;;;;;6.32;1.73;;;28.80;43.50;;;;;;5008884;28;20039;-65
2022/08/22 12:08:07;;;;;;;6.32;1.88;;;28.90;43.30;;;;;;5004468;28;20415;-65
2022/08/22 12:10:42;;;;;;;6.53;2.47;;;28.90;43.10;;;;;;4993770;28;20459;-65
2022/08/22 12:13:21;;;;;;;7.22;2.10;;;28.80;42.90;;;;;;4994882;28;20040;-65
2022/08/22 12:15:59;;;;;;;6.78;2.05;;;28.80;42.60;;;;;;5007529;28;20046;-65
2022/08/22 12:18:31;;;;;;;6.18;2.10;;;28.80;42.60;;;;;;5031381;28;20512;-65
2022/08/22 12:21:31;;;;;;;7.70;2.50;;;28.80;42.80;;;;;;5033260;28;20031;-65
2022/08/22 12:24:15;;;;;;;8.05;1.95;;;28.60;43.00;;;;;;5013747;28;20442;-65
2022/08/22 12:26:41;;;;;;;8.07;2.42;;;28.50;43.40;;;;;;5038596;28;20120;-65
2022/08/22 12:29:32;;;;;;;6.40;2.40;;;28.40;43.40;;;;;;5038896;28;20514;-65
2022/08/22 12:31:57;;;;;;;6.65;2.08;;;28.30;43.60;;;;;;5038455;28;20041;-65
2022/08/22 12:34:55;;;;;;;6.28;2.10;;;28.20;43.70;;;;;;5038492;28;20026;-65
2022/08/22 12:37:30;;;;;;;7.03;2.10;;;28.10;43.70;;;;;;5027008;28;20030;-65
2022/08/22 12:40:22;;;;;;;7.88;2.40;;;28.10;43.80;;;;;;5038875;28;20140;-65
2022/08/22 12:43:11;;;;;;;7.65;2.10;;;28.00;43.70;;;;;;5035010;28;20041;-65
2022/08/22 12:46:05;;;;;;;7.55;2.53;;;28.00;43.70;;;;;;5037183;28;20029;-65
2022/08/22 12:48:47;;;;;;;6.70;2.15;;;28.00;43.60;;;;;;5036919;28;20086;-65
2022/08/22 12:51:41;;;;;;;7.80;2.58;;;27.90;43.50;;;;;;5038318;28;20359;-65
2022/08/22 12:54:40;;;;;;;7.13;2.25;;;27.90;43.50;;;;;;5022435;28;20028;-65
2022/08/22 12:57:38;;;;;;;5.78;1.80;;;27.80;43.60;;;;;;5031507;28;20526;-65
2022/08/22 13:00:29;;;;;;;6.47;2.45;;;27.80;43.50;;;;;;5038057;28;20358;-65
2022/08/22 13:02:56;;;;;;;5.72;2.17;;;27.80;43.80;;;;;;5037320;28;20067;-65
2022/08/22 13:05:27;;;;;;;6.72;2.00;;;27.80;43.80;;;;;;5037780;28;20040;-65
2022/08/22 13:08:04;;;;;;;7.13;2.00;;;27.80;43.60;;;;;;5023882;28;20029;-65
2022/08/22 13:10:35;;;;;;;8.38;2.45;;;27.80;43.60;;;;;;5035006;28;20033;-65
2022/08/22 13:13:02;;;;;;;6.55;2.10;;;27.80;43.40;;;;;;5020208;28;20052;-65
2022/08/22 13:15:54;;;;;;;5.15;1.85;;;27.80;43.50;;;;;;5023755;28;20395;-65
2022/08/22 13:18:25;;;;;;;6.60;2.28;;;27.80;43.70;;;;;;5034566;28;20034;-65
2022/08/22 13:20:54;;;;;;;6.03;1.88;;;27.70;43.50;;;;;;5034155;28;20029;-64
2022/08/22 13:23:25;;;;;;;5.68;1.92;;;27.70;43.50;;;;;;5027967;28;20064;-65
2022/08/22 13:26:03;;;;;;;7.28;2.22;;;27.70;43.40;;;;;;5016596;28;20033;-65
2022/08/22 13:28:33;;;;;;;6.75;2.17;;;27.60;43.30;;;;;;5026214;28;20085;-65
2022/08/22 13:31:01;;;;;;;7.22;2.10;;;27.70;43.30;;;;;;5020468;28;20029;-65
2022/08/22 13:33:36;;;;;;;6.97;1.77;;;27.60;43.20;;;;;;5024528;28;20030;-65
2022/08/22 13:36:08;;;;;;;5.28;1.95;;;27.70;43.50;;;;;;5011815;28;20442;-65
2022/08/22 13:39:21;;;;;;;6.18;1.98;;;27.70;43.60;;;;;;5019499;28;20029;-66
2022/08/22 13:41:57;;;;;;;7.25;2.17;;;27.70;43.30;;;;;;5036818;28;20037;-66
2022/08/22 13:44:27;;;;;;;5.57;1.75;;;27.70;44.00;;;;;;5020415;28;20041;-65
2022/08/22 13:47:00;;;;;;;4.93;2.03;;;27.70;43.70;;;;;;5023877;28;20022;-66
2022/08/22 13:49:35;;;;;;;6.32;2.10;;;27.70;44.10;;;;;;5023058;28;20459;-65
2022/08/22 13:52:19;;;;;;;9.02;2.15;;;27.70;43.70;;;;;;5003508;28;20030;-67
2022/08/22 13:54:59;;;;;;;6.35;2.33;;;27.60;43.70;;;;;;5029292;28;20030;-66
2022/08/22 13:57:35;;;;;;;6.80;2.20;;;27.60;43.90;;;;;;5016627;28;20077;-66
2022/08/22 14:00:41;;;;;;;6.30;2.10;;;27.60;43.70;;;;;;5014894;28;20375;-66
2022/08/22 14:03:18;;;;;;;5.80;1.90;;;27.60;43.50;;;;;;5027460;28;20054;-65
2022/08/22 14:05:50;;;;;;;5.38;2.08;;;27.60;43.20;;;;;;5014218;28;20046;-65
2022/08/22 14:08:26;;;;;;;5.57;2.00;;;27.50;43.50;;;;;;5016014;28;20060;-65
2022/08/22 14:10:55;;;;;;;6.60;2.75;;;27.60;43.60;;;;;;5015664;28;20034;-65